< < Back
Terminal Aerodrome Forecast


Current Version              Previous Versions:   1  2  3  4  5  6  7  8  9  

Terminal Aerodrome Forecast

851
FTUS42 KMLB 221907 AAA
TAFDAB
TAF AMD
KDAB 221907Z 2219/2318 05013KT P6SM FEW035 FEW180 FEW250
     FM230000 05011KT P6SM SCT060
     FM230300 04005KT P6SM SCT060 SCT250
     FM231400 05011KT P6SM SCT035=

Latest METAR

936
SAUS80 KWBC 231000
MTRDAB
METAR KDAB 230953Z 04007KT 10SM FEW005 FEW060 24/22 A3019 RMK AO2 SLP221
T02440217


USA.gov is the U.S. government's official web portal to all federal, state and local government web resources and services.